< < Back
Terminal Aerodrome Forecast


Current Version              Previous Versions:   1  2  3  4  5  6  7  8  9  

Terminal Aerodrome Forecast

151
FTUS42 KMLB 251700
TAFDAB
TAF
KDAB 251738Z 2518/2618 18006KT P6SM VCTS SCT040CB SCT050 SCT250
     FM251900 15008KT P6SM VCTS SCT040CB SCT080 SCT250
      TEMPO 2520/2522 3SM TSRA SCT020 BKN035CB OVC080
     FM260100 21003KT P6SM FEW040 BKN250
     FM261400 25006KT P6SM SCT020 SCT250=

Latest METAR

274
SAUS80 KWBC 260300
MTRDAB
METAR KDAB 260253Z 22004KT 10SM FEW100 BKN200 24/23 A3008 RMK AO2 SLP184
T02390228 53002


USA.gov is the U.S. government's official web portal to all federal, state and local government web resources and services.